createdAt,value
2023-03-06T00:01:18.727Z,10.10
2023-03-06T00:03:54.059Z,8.38
2023-03-06T00:06:27.965Z,9.98
2023-03-06T00:08:59.065Z,10.85
2023-03-06T00:11:35.509Z,9.02
2023-03-06T00:14:07.189Z,8.50
2023-03-06T00:16:33.839Z,8.82
2023-03-06T00:19:08.783Z,10.20
2023-03-06T00:21:41.033Z,9.70
2023-03-06T00:24:07.625Z,7.85
2023-03-06T00:26:35.618Z,10.02
2023-03-06T00:29:02.493Z,9.00
2023-03-06T00:31:29.090Z,9.30
2023-03-06T00:33:55.390Z,12.40
2023-03-06T00:36:21.648Z,9.48
2023-03-06T00:38:47.915Z,12.48
2023-03-06T00:41:14.246Z,8.60
2023-03-06T00:43:40.605Z,8.15
2023-03-06T00:46:07.022Z,10.40
2023-03-06T00:48:33.965Z,8.20
2023-03-06T00:51:00.334Z,11.25
2023-03-06T00:53:26.748Z,9.98
2023-03-06T00:55:53.091Z,9.52
2023-03-06T00:58:19.476Z,9.32
2023-03-06T01:00:45.972Z,8.13
2023-03-06T01:03:12.687Z,10.27
2023-03-06T01:05:40.062Z,7.65
2023-03-06T01:08:06.428Z,10.55
2023-03-06T01:10:32.784Z,11.02
2023-03-06T01:12:59.193Z,9.82
2023-03-06T01:15:25.615Z,9.98
2023-03-06T01:17:54.324Z,8.00
2023-03-06T01:20:21.219Z,11.57
2023-03-06T01:22:47.571Z,7.40
2023-03-06T01:25:13.924Z,8.45
2023-03-06T01:27:40.200Z,10.30
2023-03-06T01:30:07.131Z,14.68
2023-03-06T01:32:33.710Z,9.55
2023-03-06T01:35:00.045Z,11.65
2023-03-06T01:37:26.389Z,10.50
2023-03-06T01:39:52.741Z,9.88
2023-03-06T01:42:18.990Z,10.10
2023-03-06T01:45:04.418Z,11.27
2023-03-06T01:47:30.895Z,10.48
2023-03-06T01:49:58.867Z,10.45
2023-03-06T01:52:32.869Z,10.30
2023-03-06T01:55:21.387Z,10.80
2023-03-06T01:57:55.145Z,11.48
2023-03-06T02:00:27.200Z,11.02
2023-03-06T02:03:00.755Z,8.52
2023-03-06T02:07:54.136Z,9.73
2023-03-06T02:10:21.093Z,10.43
2023-03-06T02:12:49.290Z,11.05
2023-03-06T02:15:18.654Z,11.60
2023-03-06T02:17:47.143Z,10.82
2023-03-06T02:20:25.451Z,10.50
2023-03-06T02:23:06.780Z,10.73
2023-03-06T02:25:40.817Z,10.13
2023-03-06T02:28:11.136Z,8.88
2023-03-06T02:30:37.930Z,12.05
2023-03-06T02:33:05.203Z,11.25
2023-03-06T02:38:13.296Z,9.52
2023-03-06T02:40:43.371Z,9.70
2023-03-06T02:43:12.281Z,12.25
2023-03-06T02:45:45.511Z,11.68
2023-03-06T02:48:13.190Z,12.70
2023-03-06T02:50:40.698Z,11.57
2023-03-06T02:53:07.845Z,11.32
2023-03-06T02:58:01.183Z,8.98
2023-03-06T03:00:28.139Z,11.20
2023-03-06T03:02:54.626Z,12.30
2023-03-06T03:05:21.271Z,10.95
2023-03-06T03:07:47.583Z,10.85
2023-03-06T03:10:13.991Z,12.95
2023-03-06T03:12:41.179Z,10.98
2023-03-06T03:17:38.770Z,11.45
2023-03-06T03:20:08.124Z,11.73
2023-03-06T03:22:34.453Z,11.30
2023-03-06T03:25:00.863Z,9.73
2023-03-06T03:27:27.214Z,11.70
2023-03-06T03:29:53.529Z,12.35
2023-03-06T03:32:19.825Z,9.65
2023-03-06T03:34:46.273Z,11.85
2023-03-06T03:37:12.540Z,13.80
2023-03-06T03:39:38.796Z,12.98
2023-03-06T03:42:06.118Z,12.35
2023-03-06T03:44:32.403Z,11.70
2023-03-06T03:46:58.717Z,12.40
2023-03-06T03:49:25.156Z,13.27
2023-03-06T03:51:51.576Z,11.93
2023-03-06T03:54:17.970Z,10.95
2023-03-06T03:56:45.005Z,13.48
2023-03-06T03:59:11.514Z,13.95
2023-03-06T04:01:39.701Z,12.73
2023-03-06T04:04:06.199Z,10.88
2023-03-06T04:06:32.558Z,14.10
2023-03-06T04:08:58.886Z,14.27
2023-03-06T04:11:25.251Z,12.32
2023-03-06T04:13:51.548Z,16.48
2023-03-06T04:16:17.871Z,13.73
2023-03-06T04:18:44.217Z,18.75
2023-03-06T04:21:10.499Z,18.50
2023-03-06T04:23:36.861Z,17.02
2023-03-06T04:26:03.666Z,17.92
2023-03-06T04:28:29.993Z,17.17
2023-03-06T04:30:56.362Z,20.75
2023-03-06T04:33:22.648Z,19.92
2023-03-06T04:35:49.060Z,18.80
2023-03-06T04:38:15.374Z,17.25
2023-03-06T04:40:44.501Z,18.17
2023-03-06T04:43:11.367Z,15.55
2023-03-06T04:45:37.749Z,16.13
2023-03-06T04:48:04.427Z,13.52
2023-03-06T04:50:33.984Z,12.98
2023-03-06T04:53:01.791Z,12.98
2023-03-06T04:55:28.452Z,13.48
2023-03-06T04:57:54.771Z,15.38
2023-03-06T05:00:23.679Z,11.23
2023-03-06T05:02:50.776Z,12.88
2023-03-06T05:05:18.238Z,14.00
2023-03-06T05:07:44.710Z,13.10
2023-03-06T05:10:13.789Z,13.65
2023-03-06T05:12:40.227Z,12.95
2023-03-06T05:15:08.063Z,14.70
2023-03-06T05:17:34.382Z,14.68
2023-03-06T05:20:00.835Z,13.13
2023-03-06T05:22:27.134Z,12.93
2023-03-06T05:24:53.482Z,11.52
2023-03-06T05:27:19.846Z,12.07
2023-03-06T05:29:46.142Z,16.35
2023-03-06T05:32:12.615Z,11.27
2023-03-06T05:34:39.693Z,12.55
2023-03-06T05:37:06.105Z,13.18
2023-03-06T05:39:32.430Z,13.15
2023-03-06T05:41:58.715Z,11.52
2023-03-06T05:44:25.494Z,13.18
2023-03-06T05:46:51.820Z,13.35
2023-03-06T05:49:18.146Z,13.48
2023-03-06T05:51:44.429Z,14.07
2023-03-06T05:54:10.958Z,14.85
2023-03-06T05:56:37.340Z,14.55
2023-03-06T05:59:03.674Z,13.10
2023-03-06T06:01:30.259Z,12.13
2023-03-06T06:03:56.609Z,15.07
2023-03-06T06:06:22.957Z,12.02
2023-03-06T06:08:49.301Z,14.00
2023-03-06T06:11:15.647Z,13.52
2023-03-06T06:13:41.959Z,13.90
2023-03-06T06:16:16.049Z,14.95
2023-03-06T06:18:43.379Z,15.02
2023-03-06T06:21:12.085Z,15.23
2023-03-06T06:23:38.360Z,13.00
2023-03-06T06:26:07.551Z,13.40
2023-03-06T06:28:34.688Z,15.45
2023-03-06T06:31:01.432Z,15.88
2023-03-06T06:33:27.791Z,15.55
2023-03-06T06:35:54.124Z,17.70
2023-03-06T06:38:20.481Z,14.35
2023-03-06T06:41:04.691Z,15.98
2023-03-06T06:46:19.576Z,14.65
2023-03-06T06:51:13.961Z,19.58
2023-03-06T06:53:40.268Z,16.25
2023-03-06T06:56:06.726Z,14.82
2023-03-06T06:58:33.051Z,14.00
2023-03-06T07:01:13.077Z,15.95
2023-03-06T07:03:40.477Z,14.70
2023-03-06T07:06:07.540Z,14.60
2023-03-06T07:08:34.704Z,14.10
2023-03-06T07:13:31.237Z,12.13
2023-03-06T07:15:58.182Z,16.13
2023-03-06T07:18:24.488Z,13.48
2023-03-06T07:20:54.472Z,13.13
2023-03-06T07:23:21.025Z,14.43
2023-03-06T07:25:51.356Z,13.68
2023-03-06T07:28:19.355Z,15.82
2023-03-06T07:30:45.954Z,15.70
2023-03-06T07:33:12.573Z,16.80
2023-03-06T07:35:38.946Z,14.82
2023-03-06T07:38:05.241Z,13.50
2023-03-06T07:40:31.648Z,14.30
2023-03-06T07:43:12.945Z,13.75
2023-03-06T07:45:43.382Z,18.48
2023-03-06T07:48:09.913Z,15.75
2023-03-06T07:50:36.225Z,12.20
2023-03-06T07:53:02.518Z,15.48
2023-03-06T07:55:28.803Z,15.48
2023-03-06T07:57:55.127Z,19.52
2023-03-06T08:00:21.642Z,13.13
2023-03-06T08:02:49.474Z,14.07
2023-03-06T08:05:16.914Z,13.93
2023-03-06T08:07:44.934Z,14.35
2023-03-06T08:10:13.813Z,15.07
2023-03-06T08:12:40.082Z,14.90
2023-03-06T08:15:09.340Z,13.13
2023-03-06T08:17:35.632Z,14.27
2023-03-06T08:20:02.047Z,15.40
2023-03-06T08:22:28.332Z,14.55
2023-03-06T08:24:56.226Z,15.88
2023-03-06T08:27:22.596Z,12.93
2023-03-06T08:29:48.871Z,14.85
2023-03-06T08:32:15.277Z,11.98
2023-03-06T08:34:42.782Z,15.35
2023-03-06T08:37:09.184Z,13.98
2023-03-06T08:39:35.501Z,14.80
2023-03-06T08:42:01.782Z,15.98
2023-03-06T08:44:28.077Z,15.10
2023-03-06T08:46:54.387Z,13.70
2023-03-06T08:49:20.885Z,12.32
2023-03-06T08:51:47.274Z,10.82
2023-03-06T08:54:13.614Z,14.73
2023-03-06T08:56:40.028Z,13.55
2023-03-06T08:59:06.971Z,13.77
2023-03-06T09:01:36.509Z,14.77
2023-03-06T09:04:06.537Z,14.13
2023-03-06T09:06:35.925Z,15.55
2023-03-06T09:09:02.810Z,14.40
2023-03-06T09:11:29.244Z,11.60
2023-03-06T09:13:55.966Z,15.40
2023-03-06T09:16:23.114Z,12.70
2023-03-06T09:21:20.602Z,12.05
2023-03-06T09:23:47.008Z,12.98
2023-03-06T09:26:13.430Z,12.10
2023-03-06T09:28:40.178Z,15.10
2023-03-06T09:31:16.168Z,13.32
2023-03-06T09:33:43.077Z,27.45
2023-03-06T09:36:15.532Z,13.98
2023-03-06T09:38:41.906Z,12.98
2023-03-06T09:43:43.067Z,13.67
2023-03-06T09:46:32.523Z,15.43
2023-03-06T09:49:23.788Z,15.23
2023-03-06T09:52:18.104Z,12.55
2023-03-06T09:55:11.474Z,14.15
2023-03-06T09:57:48.167Z,14.55
2023-03-06T10:00:19.464Z,13.88
2023-03-06T10:02:48.662Z,16.80
2023-03-06T10:05:31.789Z,17.52
2023-03-06T10:08:06.271Z,14.25
2023-03-06T10:10:43.806Z,14.10
2023-03-06T10:13:20.717Z,11.50
2023-03-06T10:15:49.654Z,15.75
2023-03-06T10:18:16.175Z,13.82
2023-03-06T10:20:53.459Z,14.05
2023-03-06T10:23:47.159Z,14.70
2023-03-06T10:26:19.201Z,12.27
2023-03-06T10:29:07.982Z,15.10
2023-03-06T10:31:35.159Z,13.07
2023-03-06T10:34:23.745Z,12.63
2023-03-06T10:36:50.661Z,13.20
2023-03-06T10:39:20.060Z,14.18
2023-03-06T10:41:48.057Z,13.27
2023-03-06T10:44:14.297Z,12.38
2023-03-06T10:46:43.130Z,13.68
2023-03-06T10:49:36.121Z,12.70
2023-03-06T10:52:21.046Z,18.05
2023-03-06T10:54:48.280Z,13.05
2023-03-06T10:57:29.404Z,11.90
2023-03-06T10:59:59.364Z,12.38
2023-03-06T11:02:37.230Z,9.52
2023-03-06T11:05:06.055Z,9.57
2023-03-06T11:07:34.352Z,15.40
2023-03-06T11:10:03.746Z,14.40
2023-03-06T11:12:38.977Z,12.93
2023-03-06T11:15:14.246Z,12.95
2023-03-06T11:18:00.931Z,10.30
2023-03-06T11:20:51.011Z,13.63
2023-03-06T11:23:57.564Z,16.98
2023-03-06T11:26:34.765Z,12.73
2023-03-06T11:29:34.615Z,11.55
2023-03-06T11:32:14.309Z,13.50
2023-03-06T11:34:57.604Z,13.93
2023-03-06T11:37:32.343Z,12.10
2023-03-06T11:40:17.566Z,11.73
2023-03-06T11:43:05.412Z,14.52
2023-03-06T11:45:54.221Z,10.90
2023-03-06T11:48:26.863Z,10.95
2023-03-06T11:50:59.130Z,12.70
2023-03-06T11:53:32.210Z,12.77
2023-03-06T11:56:14.387Z,13.57
2023-03-06T11:58:56.134Z,11.98
2023-03-06T12:01:34.530Z,12.98
2023-03-06T12:04:18.260Z,15.55
2023-03-06T12:06:47.297Z,13.98
2023-03-06T12:09:13.591Z,13.10
2023-03-06T12:11:58.688Z,11.27
2023-03-06T12:14:35.646Z,13.07
2023-03-06T12:17:13.429Z,12.35
2023-03-06T12:20:07.222Z,12.43
2023-03-06T12:22:57.740Z,14.93
2023-03-06T12:25:41.636Z,13.88
2023-03-06T12:28:33.863Z,11.20
2023-03-06T12:31:18.109Z,13.27
2023-03-06T12:34:11.988Z,12.65
2023-03-06T12:36:48.828Z,10.90
2023-03-06T12:39:25.630Z,12.85
2023-03-06T12:42:32.228Z,14.45
2023-03-06T12:45:27.707Z,13.65
2023-03-06T12:47:58.921Z,11.05
2023-03-06T12:50:33.963Z,11.93
2023-03-06T12:53:06.257Z,14.02
2023-03-06T12:55:40.604Z,13.73
2023-03-06T12:58:29.851Z,17.33
2023-03-06T13:01:27.138Z,9.07
2023-03-06T13:04:04.908Z,13.13
2023-03-06T13:07:02.302Z,12.18
2023-03-06T13:09:36.724Z,11.07
2023-03-06T13:12:19.265Z,12.07
2023-03-06T13:14:54.138Z,13.18
2023-03-06T13:17:25.763Z,13.88
2023-03-06T13:20:40.835Z,12.02
2023-03-06T13:23:29.013Z,13.75
2023-03-06T13:25:59.831Z,14.30
2023-03-06T13:28:40.645Z,13.38
2023-03-06T13:31:18.224Z,13.05
2023-03-06T13:33:58.534Z,16.63
2023-03-06T13:36:30.894Z,13.13
2023-03-06T13:39:02.047Z,13.10
2023-03-06T13:41:31.397Z,13.43
2023-03-06T13:44:00.462Z,10.55
2023-03-06T13:46:35.708Z,10.82
2023-03-06T13:49:07.911Z,11.82
2023-03-06T13:51:43.639Z,10.45
2023-03-06T13:54:40.311Z,13.75
2023-03-06T13:57:25.730Z,13.20
2023-03-06T14:00:16.844Z,13.20
2023-03-06T14:03:22.129Z,13.38
2023-03-06T14:05:50.540Z,11.93
2023-03-06T14:08:19.703Z,10.23
2023-03-06T14:10:48.950Z,12.95
2023-03-06T14:13:21.914Z,11.10
2023-03-06T14:15:51.095Z,11.85
2023-03-06T14:18:23.878Z,10.70
2023-03-06T14:21:05.831Z,11.95
2023-03-06T14:23:35.481Z,9.27
2023-03-06T14:26:22.272Z,12.15
2023-03-06T14:28:52.670Z,10.75
2023-03-06T14:31:22.279Z,10.77
2023-03-06T14:33:57.041Z,11.52
2023-03-06T14:36:28.716Z,12.85
2023-03-06T14:39:05.045Z,10.68
2023-03-06T14:41:34.756Z,12.02
2023-03-06T14:44:30.460Z,12.63
2023-03-06T14:47:17.480Z,12.23
2023-03-06T14:49:43.732Z,13.70
2023-03-06T14:52:20.807Z,13.35
2023-03-06T14:54:48.486Z,15.23
2023-03-06T14:57:20.317Z,13.07
2023-03-06T14:59:56.027Z,13.18
2023-03-06T15:02:25.614Z,13.10
2023-03-06T15:05:02.057Z,14.18
2023-03-06T15:07:32.474Z,13.15
2023-03-06T15:09:59.536Z,16.38
2023-03-06T15:12:33.864Z,14.38
2023-03-06T15:15:24.542Z,14.05
2023-03-06T15:17:50.857Z,15.32
2023-03-06T15:20:37.776Z,16.85
2023-03-06T15:23:15.281Z,16.42
2023-03-06T15:25:50.879Z,13.50
2023-03-06T15:28:27.911Z,14.25
2023-03-06T15:31:10.633Z,13.57
2023-03-06T15:33:37.489Z,16.92
2023-03-06T15:36:07.013Z,14.35
2023-03-06T15:38:43.417Z,14.60
2023-03-06T15:41:31.759Z,13.48
2023-03-06T15:44:00.169Z,10.38
2023-03-06T15:46:27.092Z,14.30
2023-03-06T15:48:55.972Z,11.07
2023-03-06T15:51:22.660Z,9.65
2023-03-06T15:53:49.350Z,14.00
2023-03-06T15:56:20.348Z,7.95
2023-03-06T15:58:46.704Z,11.52
2023-03-06T16:01:16.947Z,10.27
2023-03-06T16:03:44.998Z,8.50
2023-03-06T16:06:16.624Z,9.35
2023-03-06T16:08:43.185Z,10.25
2023-03-06T16:11:17.215Z,13.13
2023-03-06T16:13:44.709Z,9.48
2023-03-06T16:16:19.430Z,9.90
2023-03-06T16:18:46.231Z,10.27
2023-03-06T16:21:12.592Z,11.35
2023-03-06T16:23:39.980Z,11.10
2023-03-06T16:26:16.947Z,11.60
2023-03-06T16:28:45.118Z,11.52
2023-03-06T16:31:15.413Z,10.45
2023-03-06T16:33:41.970Z,10.43
2023-03-06T16:36:26.540Z,12.60
2023-03-06T16:38:53.277Z,10.90
2023-03-06T16:41:20.363Z,10.90
2023-03-06T16:43:47.505Z,11.93
2023-03-06T16:48:42.105Z,10.43
2023-03-06T16:51:13.026Z,11.13
2023-03-06T16:53:39.327Z,12.85
2023-03-06T16:56:06.032Z,13.10
2023-03-06T16:58:32.416Z,12.02
2023-03-06T17:00:58.751Z,12.63
2023-03-06T17:03:25.428Z,13.65
2023-03-06T17:05:51.890Z,12.40
2023-03-06T17:08:18.189Z,15.90
2023-03-06T17:10:44.535Z,11.88
2023-03-06T17:13:10.974Z,14.30
2023-03-06T17:15:37.291Z,13.38
2023-03-06T17:18:03.908Z,12.55
2023-03-06T17:20:30.238Z,12.73
2023-03-06T17:22:56.584Z,14.00
2023-03-06T17:25:23.130Z,13.00
2023-03-06T17:27:49.509Z,15.10
2023-03-06T17:30:16.222Z,14.48
2023-03-06T17:32:42.580Z,11.90
2023-03-06T17:35:10.042Z,16.13
2023-03-06T17:37:36.570Z,13.10
2023-03-06T17:40:03.410Z,15.75
2023-03-06T17:42:29.690Z,16.77
2023-03-06T17:44:57.258Z,16.02
2023-03-06T17:47:23.518Z,13.95
2023-03-06T17:49:49.793Z,14.05
2023-03-06T17:52:16.090Z,17.17
2023-03-06T17:54:42.397Z,14.15
2023-03-06T17:57:08.732Z,13.07
2023-03-06T17:59:35.104Z,13.98
2023-03-06T18:02:01.872Z,15.82
2023-03-06T18:04:29.104Z,16.77
2023-03-06T18:06:56.875Z,16.48
2023-03-06T18:09:23.337Z,15.70
2023-03-06T18:11:49.665Z,15.77
2023-03-06T18:14:16.012Z,14.80
2023-03-06T18:16:42.387Z,16.88
2023-03-06T18:19:10.934Z,15.10
2023-03-06T18:21:39.130Z,17.10
2023-03-06T18:24:05.898Z,15.68
2023-03-06T18:26:32.268Z,17.23
2023-03-06T18:29:01.834Z,14.38
2023-03-06T18:31:38.981Z,13.95
2023-03-06T18:34:08.763Z,14.65
2023-03-06T18:36:35.705Z,16.15
2023-03-06T18:39:03.749Z,14.88
2023-03-06T18:41:31.078Z,14.95
2023-03-06T18:46:28.898Z,11.80
2023-03-06T18:48:55.228Z,12.00
2023-03-06T18:51:21.680Z,15.50
2023-03-06T18:53:48.032Z,14.23
2023-03-06T18:56:17.266Z,16.38
2023-03-06T18:58:44.340Z,13.18
2023-03-06T19:01:11.686Z,15.88
2023-03-06T19:03:38.345Z,15.93
2023-03-06T19:06:07.441Z,18.20
2023-03-06T19:08:35.248Z,18.25
2023-03-06T19:11:06.930Z,17.90
2023-03-06T19:13:33.378Z,15.73
2023-03-06T19:15:59.997Z,19.73
2023-03-06T19:18:27.814Z,15.65
2023-03-06T19:20:54.557Z,16.73
2023-03-06T19:23:21.972Z,17.17
2023-03-06T19:25:59.057Z,18.70
2023-03-06T19:28:26.123Z,18.77
2023-03-06T19:30:52.748Z,21.70
2023-03-06T19:33:19.660Z,22.38
2023-03-06T19:35:46.487Z,22.25
2023-03-06T19:38:13.892Z,19.83
2023-03-06T19:40:40.201Z,22.58
2023-03-06T19:43:06.478Z,19.88
2023-03-06T19:45:32.854Z,24.15
2023-03-06T19:48:00.825Z,23.88
2023-03-06T19:50:30.858Z,19.30
2023-03-06T19:52:57.560Z,23.00
2023-03-06T19:55:26.189Z,19.58
2023-03-06T19:57:53.633Z,21.80
2023-03-06T20:00:20.759Z,20.48
2023-03-06T20:05:13.402Z,21.40
2023-03-06T20:07:39.682Z,20.15
2023-03-06T20:10:07.081Z,20.65
2023-03-06T20:12:33.561Z,22.90
2023-03-06T20:14:59.978Z,19.58
2023-03-06T20:17:26.261Z,18.00
2023-03-06T20:19:52.726Z,19.10
2023-03-06T20:22:19.314Z,21.23
2023-03-06T20:24:45.873Z,18.00
2023-03-06T20:27:12.250Z,21.48
2023-03-06T20:29:43.167Z,15.52
2023-03-06T20:32:09.499Z,18.02
2023-03-06T20:34:38.852Z,18.45
2023-03-06T20:37:06.374Z,17.05
2023-03-06T20:39:32.706Z,18.38
2023-03-06T20:41:59.961Z,20.35
2023-03-06T20:44:27.272Z,18.13
2023-03-06T20:46:53.663Z,20.48
2023-03-06T20:49:19.963Z,19.33
2023-03-06T20:51:46.291Z,19.40
2023-03-06T20:54:14.947Z,21.10
2023-03-06T20:56:44.567Z,20.42
2023-03-06T20:59:12.239Z,18.88
2023-03-06T21:01:41.732Z,22.15
2023-03-06T21:04:10.140Z,24.20
2023-03-06T21:06:37.676Z,22.23
2023-03-06T21:09:05.260Z,20.45
2023-03-06T21:11:32.060Z,19.55
2023-03-06T21:13:58.363Z,16.52
2023-03-06T21:16:25.879Z,24.40
2023-03-06T21:18:58.963Z,20.75
2023-03-06T21:27:34.808Z,21.13
2023-03-06T21:30:01.122Z,18.83
2023-03-06T21:32:27.475Z,21.48
2023-03-06T21:34:53.738Z,16.30
2023-03-06T21:37:20.015Z,21.73
2023-03-06T21:39:48.679Z,19.73
2023-03-06T21:42:15.000Z,21.67
2023-03-06T21:44:41.390Z,16.90
2023-03-06T21:47:09.454Z,18.60
2023-03-06T21:49:35.844Z,21.27
2023-03-06T21:52:02.141Z,20.95
2023-03-06T21:54:29.197Z,23.85
2023-03-06T21:56:55.695Z,18.27
2023-03-06T21:59:21.985Z,21.08
2023-03-06T22:01:48.350Z,20.10
2023-03-06T22:04:14.715Z,22.02
2023-03-06T22:06:41.280Z,15.75
2023-03-06T22:09:07.769Z,21.90
2023-03-06T22:11:37.269Z,21.35
2023-03-06T22:14:04.941Z,20.05
2023-03-06T22:16:31.647Z,22.85
2023-03-06T22:18:58.974Z,18.52
2023-03-06T22:21:25.317Z,19.60
2023-03-06T22:23:54.441Z,20.30
2023-03-06T22:26:21.127Z,22.15
2023-03-06T22:28:47.482Z,19.65
2023-03-06T22:31:18.730Z,26.83
2023-03-06T22:33:45.438Z,20.55
2023-03-06T22:36:14.884Z,25.48
2023-03-06T22:38:43.724Z,25.52
2023-03-06T22:41:15.068Z,22.83
2023-03-06T22:43:41.777Z,15.15
2023-03-06T22:46:14.282Z,19.83
2023-03-06T22:48:41.094Z,22.30
2023-03-06T22:51:11.885Z,23.10
2023-03-06T22:53:38.863Z,24.35
2023-03-06T22:56:07.808Z,19.52
2023-03-06T22:58:37.058Z,22.77
2023-03-06T23:01:06.065Z,23.50
2023-03-06T23:03:32.432Z,22.83
2023-03-06T23:05:58.688Z,26.05
2023-03-06T23:08:24.981Z,22.33
2023-03-06T23:10:51.334Z,19.45
2023-03-06T23:13:17.619Z,22.90
2023-03-06T23:15:43.976Z,13.98
2023-03-06T23:18:10.374Z,17.23
2023-03-06T23:20:41.821Z,21.42
2023-03-06T23:23:08.085Z,26.55
2023-03-06T23:25:34.701Z,23.63
2023-03-06T23:28:01.727Z,26.67
2023-03-06T23:30:28.041Z,23.75
2023-03-06T23:32:54.326Z,24.50
2023-03-06T23:35:20.743Z,22.40
2023-03-06T23:37:47.072Z,25.20
2023-03-06T23:40:13.814Z,21.27
2023-03-06T23:42:40.282Z,26.67
2023-03-06T23:45:07.322Z,21.00
2023-03-06T23:47:33.919Z,26.63
2023-03-06T23:50:00.249Z,28.85
2023-03-06T23:52:26.668Z,23.40
2023-03-06T23:54:52.954Z,28.02
2023-03-06T23:57:19.347Z,27.27
2023-03-06T23:59:46.010Z,24.90
